Fort Flagler, Washington
Current Conditions -  °F | °C
As of 10:33 PM on Thursday 27 Nov 2014 (Local Time) from KNUW Reporting Station
Broken Clouds Broken Clouds  
Wind Chill: 57°   Ceiling: 1400
Heat Index: 57°   Visibility: 10mi
Dew Point: 51°   Wind: 12mph
Humidity: 81%   Direction: 160°SSE
Pressure: 29.63"   Gusts: NA
Location:  48.0545°N, 122.706°W
Report Text: KNUW 280633Z AUTO 16010KT 10SM BKN014 BKN070 BKN120 14/11 A2963 RMK AO2 T01390106 $
Loading
Personal Weather Stations






























Interactive Weather Map New forecast layout! Learn more

10-Day Weather Forecast

Advertisements
Track Severe Weather on mobile